ADDS METAR Data INFO
IDs: Format: Raw Decoded Include TAF

Data at: 0302 UTC 21 Oct 2017

KITH 210256Z AUTO 07006KT 10SM CLR 07/03 A3023 RMK AO2 SLP240 T00720033 53006
KITH 210156Z 07006KT 10SM CLR 07/04 A3022 RMK AO2 SLP236 T00670039
KITH 210056Z 08005KT 10SM CLR 07/04 A3022 RMK AO2 SLP237 T00670039
KITH 202356Z 06004KT 10SM CLR 07/04 A3021 RMK AO2 SLP239 T00720044 10178 20072 58001
KITH 202256Z 07003KT 10SM CLR 09/04 A3023 RMK AO2 SLP242 T00890044
KITH 202156Z 30003KT 10SM CLR 15/03 A3022 RMK AO2 SLP237 T01500033
KITH 202056Z 30005KT 10SM CLR 17/03 A3022 RMK AO2 SLP236 T01720028 58005
KITH 201956Z 33006KT 10SM CLR 17/02 A3022 RMK AO2 SLP237 T01720017
KITH 201856Z 30008KT 10SM CLR 17/03 A3023 RMK AO2 SLP238 T01720028
KITH 201756Z 32010KT 10SM CLR 17/03 A3023 RMK AO2 SLP238 T01670028 10172 20033 58008
KITH 201656Z 30010KT 10SM CLR 16/03 A3025 RMK AO2 SLP245 T01610033
KITH 201556Z 32011KT 10SM CLR 16/04 A3026 RMK AO2 SLP247 T01560039
KITH 201456Z 32011G17KT 10SM CLR 14/06 A3026 RMK AO2 SLP247 T01440056 51015
KITH 201356Z 32007KT 10SM CLR 13/05 A3026 RMK AO2 SLP245 T01280050
KITH 201256Z 00000KT 10SM CLR 09/07 A3024 RMK AO2 SLP240 T00940067
KITH 201156Z 00000KT 10SM CLR 03/03 A3021 RMK AO2 SLP234 T00330028 10094 20028 53019
KITH 201056Z 00000KT 10SM CLR 03/02 A3019 RMK AO2 SLP227 T00280022
KITH 201030Z 00000KT 10SM CLR 03/03 A3019 RMK AO2
KITH 200956Z AUTO 00000KT 10SM CLR 03/03 A3017 RMK AO2 SLP220 T00330028
KITH 200856Z AUTO 00000KT 10SM CLR 04/03 A3016 RMK AO2 SLP212 T00390028 53008
KITH 200756Z AUTO 00000KT 10SM CLR 04/03 A3014 RMK AO2 SLP207 T00440033
KITH 200656Z AUTO 31003KT 10SM CLR 07/04 A3014 RMK AO2 SLP205 T00670044
KITH 200556Z AUTO 29006KT 10SM CLR 09/07 A3013 RMK AO2 SLP202 T00940067 10178 20094 51008
KITH 200456Z AUTO 30004KT 10SM CLR 10/08 A3013 RMK AO2 SLP201 T01000083
KITH 200356Z AUTO 30007KT 10SM CLR 12/09 A3011 RMK AO2 SLP195 T01170089 402220089
KITH 200256Z AUTO 33004KT 10SM CLR 13/09 A3010 RMK AO2 SLP193 T01280094 51017
KITH 200156Z 28007KT 10SM OVC055 16/11 A3010 RMK AO2 SLP192 T01610106
KITH 200056Z 31006KT 10SM SCT060 17/07 A3008 RMK AO2 SLP184 T01670072
KITH 192356Z 25007KT 10SM CLR 17/07 A3005 RMK AO2 SLP177 T01720067 10222 20161 53013
KITH 192256Z 26005KT 10SM CLR 16/07 A3004 RMK AO2 SLP174 T01610067
KITH 192156Z 24005KT 10SM CLR 20/07 A3002 RMK AO2 SLP166 T02000067
KITH 192056Z 23009KT 10SM CLR 21/06 A3001 RMK AO2 SLP162 T02110056 56017
KITH 191956Z 23010G18KT 10SM CLR 22/06 A3003 RMK AO2 SLP165 T02220061
KITH 191856Z 23014G19KT 10SM CLR 22/06 A3003 RMK AO2 SLP168 T02170056
KITH 191756Z 20015G20KT 10SM CLR 21/06 A3007 RMK AO2 SLP179 T02060061 10206 20094 58024
KITH 191656Z 24015KT 10SM CLR 20/06 A3009 RMK AO2 SLP187 T02000061
KITH 191556Z 24015KT 10SM CLR 18/06 A3012 RMK AO2 SLP197 T01830061